createdAt,value
2019-06-04T00:00:16.636Z,20.65
2019-06-04T00:01:25.453Z,20.65
2019-06-04T00:02:23.117Z,20.65
2019-06-04T00:03:25.332Z,20.65
2019-06-04T00:04:27.910Z,20.64
2019-06-04T00:05:30.127Z,20.64
2019-06-04T00:06:32.719Z,20.65
2019-06-04T00:07:34.937Z,20.65
2019-06-04T00:08:37.529Z,20.65
2019-06-04T00:09:39.728Z,20.64
2019-06-04T00:10:42.327Z,20.64
2019-06-04T00:11:44.550Z,20.65
2019-06-04T00:12:47.185Z,20.65
2019-06-04T00:13:49.397Z,20.65
2019-06-04T00:14:52.008Z,20.64
2019-06-04T00:15:54.906Z,20.65
2019-06-04T00:16:58.279Z,20.64
2019-06-04T00:18:00.767Z,20.64
2019-06-04T00:19:03.589Z,20.64
2019-06-04T00:20:05.886Z,20.64
2019-06-04T00:21:08.478Z,20.64
2019-06-04T00:22:10.690Z,20.65
2019-06-04T00:23:13.328Z,20.64
2019-06-04T00:24:15.554Z,20.64
2019-06-04T00:25:18.150Z,20.64
2019-06-04T00:26:20.348Z,20.65
2019-06-04T00:27:24.653Z,20.64
2019-06-04T00:28:26.902Z,20.65
2019-06-04T00:29:29.481Z,20.63
2019-06-04T00:30:32.377Z,20.64
2019-06-04T00:31:35.628Z,20.63
2019-06-04T00:32:37.895Z,20.64
2019-06-04T00:33:40.522Z,20.64
2019-06-04T00:34:42.741Z,20.64
2019-06-04T00:35:45.336Z,20.64
2019-06-04T00:36:47.544Z,20.63
2019-06-04T00:37:50.159Z,20.64
2019-06-04T00:38:53.033Z,20.64
2019-06-04T00:39:56.488Z,20.64
2019-06-04T00:40:58.831Z,20.63
2019-06-04T00:42:01.416Z,20.64
2019-06-04T00:43:04.917Z,20.64
2019-06-04T00:44:07.658Z,20.63
2019-06-04T00:45:09.853Z,20.64
2019-06-04T00:46:12.454Z,20.64
2019-06-04T00:47:14.666Z,20.63
2019-06-04T00:48:17.262Z,20.63
2019-06-04T00:49:19.512Z,20.63
2019-06-04T00:50:22.099Z,20.63
2019-06-04T00:51:24.296Z,20.63
2019-06-04T00:52:26.908Z,20.63
2019-06-04T00:53:29.134Z,20.63
2019-06-04T00:54:31.734Z,20.63
2019-06-04T00:55:33.950Z,20.63
2019-06-04T00:56:36.544Z,20.62
2019-06-04T00:57:38.766Z,20.63
2019-06-04T00:58:41.383Z,20.62
2019-06-04T00:59:43.586Z,20.62
2019-06-04T01:00:46.175Z,20.61
2019-06-04T01:01:54.195Z,20.62
2019-06-04T01:02:52.730Z,20.62
2019-06-04T01:03:54.878Z,20.62
2019-06-04T01:04:57.962Z,20.62
2019-06-04T01:06:01.875Z,20.62
2019-06-04T01:07:05.321Z,20.62
2019-06-04T01:08:20.266Z,20.61
2019-06-04T01:09:11.822Z,20.61
2019-06-04T01:10:14.059Z,20.62
2019-06-04T01:11:16.655Z,20.61
2019-06-04T01:12:18.863Z,20.62
2019-06-04T01:13:21.474Z,20.62
2019-06-04T01:14:23.694Z,20.60
2019-06-04T01:15:26.331Z,20.61
2019-06-04T01:16:28.540Z,20.61
2019-06-04T01:17:31.132Z,20.61
2019-06-04T01:18:33.357Z,20.61
2019-06-04T01:19:35.966Z,20.61
2019-06-04T01:20:38.172Z,20.61
2019-06-04T01:21:40.844Z,20.61
2019-06-04T01:22:43.008Z,20.61
2019-06-04T01:23:45.592Z,20.60
2019-06-04T01:24:47.906Z,20.60
2019-06-04T01:25:50.503Z,20.61
2019-06-04T01:26:52.702Z,20.61
2019-06-04T01:27:55.307Z,20.60
2019-06-04T01:28:57.514Z,20.60
2019-06-04T01:30:00.115Z,20.60
2019-06-04T01:31:03.161Z,20.60
2019-06-04T01:32:15.746Z,20.60
2019-06-04T01:33:10.767Z,20.61
2019-06-04T01:34:13.444Z,20.60
2019-06-04T01:35:15.640Z,20.60
2019-06-04T01:36:18.242Z,20.60
2019-06-04T01:37:20.432Z,20.60
2019-06-04T01:38:23.062Z,20.59
2019-06-04T01:39:25.269Z,20.60
2019-06-04T01:40:27.869Z,20.59
2019-06-04T01:41:30.067Z,20.58
2019-06-04T01:42:32.665Z,20.60
2019-06-04T01:43:34.883Z,20.59
2019-06-04T01:44:37.475Z,20.57
2019-06-04T01:45:39.687Z,20.59
2019-06-04T01:46:42.289Z,20.59
2019-06-04T01:47:44.509Z,20.57
2019-06-04T01:48:47.135Z,20.59
2019-06-04T01:49:49.356Z,20.58
2019-06-04T01:50:51.934Z,20.59
2019-06-04T01:51:54.139Z,20.59
2019-06-04T01:52:56.752Z,20.59
2019-06-04T01:53:58.929Z,20.59
2019-06-04T01:55:02.726Z,20.59
2019-06-04T01:56:04.960Z,20.57
2019-06-04T01:57:08.628Z,20.59
2019-06-04T01:58:12.730Z,20.58
2019-06-04T01:59:15.326Z,20.59
2019-06-04T02:00:30.260Z,20.58
2019-06-04T02:01:22.047Z,20.59
2019-06-04T02:02:33.075Z,20.59
2019-06-04T02:03:28.511Z,20.59
2019-06-04T02:04:30.736Z,20.58
2019-06-04T02:05:33.324Z,20.58
2019-06-04T02:06:35.543Z,20.58
2019-06-04T02:07:38.148Z,20.59
2019-06-04T02:08:40.383Z,20.59
2019-06-04T02:09:42.967Z,20.59
2019-06-04T02:10:45.198Z,20.57
2019-06-04T02:11:47.793Z,20.58
2019-06-04T02:12:49.997Z,20.57
2019-06-04T02:13:52.664Z,20.57
2019-06-04T02:14:54.787Z,20.58
2019-06-04T02:15:57.370Z,20.57
2019-06-04T02:16:59.585Z,20.57
2019-06-04T02:18:02.191Z,20.56
2019-06-04T02:19:05.516Z,20.57
2019-06-04T02:20:08.202Z,20.58
2019-06-04T02:21:10.418Z,20.57
2019-06-04T02:22:14.102Z,20.56
2019-06-04T02:23:16.340Z,20.56
2019-06-04T02:24:20.924Z,20.56
2019-06-04T02:25:22.825Z,20.56
2019-06-04T02:26:25.415Z,20.56
2019-06-04T02:27:27.631Z,20.56
2019-06-04T02:28:30.248Z,20.55
2019-06-04T02:29:32.449Z,20.56
2019-06-04T02:30:35.048Z,20.55
2019-06-04T02:31:37.258Z,20.55
2019-06-04T02:33:05.703Z,20.55
2019-06-04T02:33:43.796Z,20.55
2019-06-04T02:34:46.387Z,20.55
2019-06-04T02:35:48.619Z,20.55
2019-06-04T02:36:51.214Z,20.54
2019-06-04T02:37:53.437Z,20.55
2019-06-04T02:38:56.034Z,20.54
2019-06-04T02:39:58.241Z,20.54
2019-06-04T02:41:00.843Z,20.54
2019-06-04T02:42:03.038Z,20.54
2019-06-04T02:43:06.194Z,20.54
2019-06-04T02:44:09.362Z,20.55
2019-06-04T02:45:12.499Z,20.55
2019-06-04T02:46:16.099Z,20.54
2019-06-04T02:47:18.986Z,20.54
2019-06-04T02:48:21.215Z,20.53
2019-06-04T02:49:23.786Z,20.53
2019-06-04T02:50:25.925Z,20.53
2019-06-04T02:51:28.554Z,20.53
2019-06-04T02:52:30.747Z,20.53
2019-06-04T02:53:33.390Z,20.53
2019-06-04T02:54:35.594Z,20.52
2019-06-04T02:55:38.191Z,20.53
2019-06-04T02:56:40.394Z,20.52
2019-06-04T02:57:42.982Z,20.54
2019-06-04T02:58:45.209Z,20.52
2019-06-04T02:59:47.799Z,20.52
2019-06-04T03:00:50.018Z,20.53
2019-06-04T03:01:52.639Z,20.52
2019-06-04T03:02:54.855Z,20.53
2019-06-04T03:03:57.450Z,20.52
2019-06-04T03:04:59.648Z,20.52
2019-06-04T03:06:02.237Z,20.53
2019-06-04T03:07:04.430Z,20.52
2019-06-04T03:08:07.026Z,20.52
2019-06-04T03:09:09.345Z,20.51
2019-06-04T03:10:13.088Z,20.52
2019-06-04T03:11:16.568Z,20.52
2019-06-04T03:12:19.683Z,20.53
2019-06-04T03:13:21.853Z,20.51
2019-06-04T03:14:24.458Z,20.52
2019-06-04T03:15:26.672Z,20.52
2019-06-04T03:16:29.271Z,20.52
2019-06-04T03:17:31.525Z,20.52
2019-06-04T03:18:34.122Z,20.53
2019-06-04T03:19:36.346Z,20.52
2019-06-04T03:20:38.933Z,20.53
2019-06-04T03:21:41.148Z,20.51
2019-06-04T03:22:43.782Z,20.53
2019-06-04T03:23:45.996Z,20.52
2019-06-04T03:24:48.599Z,20.52
2019-06-04T03:25:50.889Z,20.52
2019-06-04T03:26:53.560Z,20.53
2019-06-04T03:27:55.775Z,20.53
2019-06-04T03:28:58.377Z,20.52
2019-06-04T03:30:00.579Z,20.52
2019-06-04T03:31:03.183Z,20.52
2019-06-04T03:32:05.395Z,20.52
2019-06-04T03:33:08.042Z,20.52
2019-06-04T03:34:10.263Z,20.52
2019-06-04T03:35:12.834Z,20.52
2019-06-04T03:36:15.053Z,20.51
2019-06-04T03:37:18.809Z,20.51
2019-06-04T03:38:21.246Z,20.52
2019-06-04T03:39:24.352Z,20.51
2019-06-04T03:40:26.688Z,20.51
2019-06-04T03:41:29.283Z,20.51
2019-06-04T03:42:31.420Z,20.51
2019-06-04T03:43:34.044Z,20.51
2019-06-04T03:44:36.250Z,20.51
2019-06-04T03:45:38.834Z,20.51
2019-06-04T03:46:41.052Z,20.50
2019-06-04T03:47:43.698Z,20.50
2019-06-04T03:48:45.861Z,20.50
2019-06-04T03:49:48.462Z,20.50
2019-06-04T03:50:50.663Z,20.50
2019-06-04T03:51:53.258Z,20.50
2019-06-04T03:52:55.466Z,20.49
2019-06-04T03:53:58.052Z,20.50
2019-06-04T03:55:00.250Z,20.50
2019-06-04T03:56:02.854Z,20.50
2019-06-04T03:57:05.086Z,20.50
2019-06-04T03:58:07.680Z,20.49
2019-06-04T03:59:09.892Z,20.49
2019-06-04T04:00:12.550Z,20.50
2019-06-04T04:01:14.719Z,20.50
2019-06-04T04:02:18.542Z,20.49
2019-06-04T04:03:23.386Z,20.49
2019-06-04T04:04:25.139Z,20.50
2019-06-04T04:05:27.338Z,20.49
2019-06-04T04:06:29.952Z,20.49
2019-06-04T04:07:32.190Z,20.49
2019-06-04T04:08:34.800Z,20.49
2019-06-04T04:09:37.013Z,20.49
2019-06-04T04:10:39.617Z,20.50
2019-06-04T04:11:41.843Z,20.49
2019-06-04T04:12:44.467Z,20.50
2019-06-04T04:13:46.664Z,20.49
2019-06-04T04:14:49.251Z,20.49
2019-06-04T04:15:51.468Z,20.49
2019-06-04T04:16:54.076Z,20.49
2019-06-04T04:17:56.335Z,20.49
2019-06-04T04:18:58.934Z,20.49
2019-06-04T04:20:01.143Z,20.49
2019-06-04T04:21:03.748Z,20.49
2019-06-04T04:22:05.959Z,20.49
2019-06-04T04:23:08.591Z,20.48
2019-06-04T04:24:10.789Z,20.49
2019-06-04T04:25:13.388Z,20.48
2019-06-04T04:26:16.407Z,20.49
2019-06-04T04:27:19.571Z,20.48
2019-06-04T04:28:23.788Z,20.48
2019-06-04T04:29:26.143Z,20.49
2019-06-04T04:30:29.188Z,20.49
2019-06-04T04:31:35.587Z,20.48
2019-06-04T04:32:35.795Z,20.48
2019-06-04T04:33:38.415Z,20.48
2019-06-04T04:34:40.614Z,20.48
2019-06-04T04:35:43.197Z,20.48
2019-06-04T04:36:45.332Z,20.49
2019-06-04T04:37:49.252Z,20.49
2019-06-04T04:38:51.675Z,20.48
2019-06-04T04:39:54.246Z,20.48
2019-06-04T04:40:56.456Z,20.49
2019-06-04T04:41:59.052Z,20.49
2019-06-04T04:43:01.264Z,20.49
2019-06-04T04:44:03.875Z,20.48
2019-06-04T04:45:06.080Z,20.49
2019-06-04T04:46:08.705Z,20.49
2019-06-04T04:47:10.904Z,20.49
2019-06-04T04:48:13.501Z,20.49
2019-06-04T04:49:15.715Z,20.50
2019-06-04T04:50:19.105Z,20.50
2019-06-04T04:51:21.554Z,20.50
2019-06-04T04:52:25.430Z,20.50
2019-06-04T04:53:27.741Z,20.49
2019-06-04T04:54:30.333Z,20.50
2019-06-04T04:55:32.550Z,20.51
2019-06-04T04:56:36.537Z,20.50
2019-06-04T04:57:41.967Z,20.51
2019-06-04T04:58:44.554Z,20.50
2019-06-04T04:59:46.669Z,20.50
2019-06-04T05:00:49.265Z,20.51
2019-06-04T05:01:51.494Z,20.50
2019-06-04T05:02:54.095Z,20.50
2019-06-04T05:03:56.303Z,20.50
2019-06-04T05:04:58.900Z,20.51
2019-06-04T05:06:01.095Z,20.52
2019-06-04T05:07:04.182Z,20.53
2019-06-04T05:08:06.551Z,20.52
2019-06-04T05:09:09.123Z,20.53
2019-06-04T05:10:11.350Z,20.53
2019-06-04T05:11:14.301Z,20.53
2019-06-04T05:12:16.525Z,20.54
2019-06-04T05:13:20.451Z,20.56
2019-06-04T05:14:23.057Z,20.55
2019-06-04T05:15:26.955Z,20.56
2019-06-04T05:16:29.553Z,20.56
2019-06-04T05:17:32.290Z,20.54
2019-06-04T05:18:34.503Z,20.52
2019-06-04T05:19:37.103Z,20.53
2019-06-04T05:20:39.298Z,20.52
2019-06-04T05:21:41.888Z,20.51
2019-06-04T05:22:44.252Z,20.52
2019-06-04T05:23:46.870Z,20.52
2019-06-04T05:24:49.114Z,20.51
2019-06-04T05:25:51.712Z,20.51
2019-06-04T05:26:53.936Z,20.51
2019-06-04T05:27:56.561Z,20.50
2019-06-04T05:28:58.757Z,20.50
2019-06-04T05:30:01.477Z,20.50
2019-06-04T05:31:03.769Z,20.49
2019-06-04T05:32:06.388Z,20.51
2019-06-04T05:33:08.643Z,20.50
2019-06-04T05:34:11.232Z,20.50
2019-06-04T05:35:13.434Z,20.50
2019-06-04T05:36:16.017Z,20.50
2019-06-04T05:37:18.181Z,20.50
2019-06-04T05:38:22.010Z,20.50
2019-06-04T05:39:24.378Z,20.51
2019-06-04T05:40:26.966Z,20.50
2019-06-04T05:41:30.469Z,20.51
2019-06-04T05:42:33.157Z,20.50
2019-06-04T05:43:35.391Z,20.50
2019-06-04T05:44:37.970Z,20.50
2019-06-04T05:45:40.174Z,20.51
2019-06-04T05:46:42.756Z,20.50
2019-06-04T05:47:44.980Z,20.50
2019-06-04T05:48:47.561Z,20.50
2019-06-04T05:49:49.767Z,20.50
2019-06-04T05:50:52.351Z,20.50
2019-06-04T05:51:54.547Z,20.51
2019-06-04T05:52:57.165Z,20.50
2019-06-04T05:53:59.412Z,20.51
2019-06-04T05:55:02.634Z,20.51
2019-06-04T05:56:04.974Z,20.50
2019-06-04T05:57:07.567Z,20.50
2019-06-04T05:58:09.774Z,20.51
2019-06-04T05:59:12.404Z,20.50
2019-06-04T06:00:14.602Z,20.50
2019-06-04T06:01:17.202Z,20.50
2019-06-04T06:02:19.425Z,20.50
2019-06-04T06:03:23.208Z,20.51
2019-06-04T06:04:25.422Z,20.51
2019-06-04T06:05:36.008Z,20.51
2019-06-04T06:06:33.182Z,20.50
2019-06-04T06:07:35.890Z,20.49
2019-06-04T06:08:38.100Z,20.50
2019-06-04T06:09:40.704Z,20.50
2019-06-04T06:10:42.926Z,20.51
2019-06-04T06:11:45.450Z,20.50
2019-06-04T06:12:47.664Z,20.51
2019-06-04T06:13:50.265Z,20.51
2019-06-04T06:14:52.468Z,20.50
2019-06-04T06:15:55.055Z,20.52
2019-06-04T06:16:57.319Z,20.52
2019-06-04T06:17:59.842Z,20.51
2019-06-04T06:19:02.054Z,20.51
2019-06-04T06:20:04.644Z,20.51
2019-06-04T06:21:08.571Z,20.51
2019-06-04T06:22:11.325Z,20.51
2019-06-04T06:23:13.539Z,20.51
2019-06-04T06:24:16.127Z,20.51
2019-06-04T06:25:18.329Z,20.51
2019-06-04T06:26:20.931Z,20.50
2019-06-04T06:27:24.341Z,20.51
2019-06-04T06:28:28.228Z,20.52
2019-06-04T06:29:30.881Z,20.51
2019-06-04T06:30:35.018Z,20.51
2019-06-04T06:31:37.270Z,20.51
2019-06-04T06:32:39.893Z,20.51
2019-06-04T06:33:42.090Z,20.51
2019-06-04T06:34:44.677Z,20.50
2019-06-04T06:35:50.839Z,20.49
2019-06-04T06:36:54.566Z,20.50
2019-06-04T06:37:56.811Z,20.50
2019-06-04T06:38:59.411Z,20.51
2019-06-04T06:40:01.619Z,20.50
2019-06-04T06:41:04.220Z,20.51
2019-06-04T06:42:06.452Z,20.51
2019-06-04T06:43:09.054Z,20.51
2019-06-04T06:44:11.259Z,20.51
2019-06-04T06:45:13.839Z,20.50
2019-06-04T06:46:16.061Z,20.51
2019-06-04T06:47:18.643Z,20.51
2019-06-04T06:48:20.960Z,20.52
2019-06-04T06:49:23.645Z,20.51
2019-06-04T06:50:26.887Z,20.52
2019-06-04T06:51:29.650Z,20.51
2019-06-04T06:52:31.856Z,20.52
2019-06-04T06:53:35.849Z,20.52
2019-06-04T06:54:40.602Z,20.53
2019-06-04T06:55:42.733Z,20.54
2019-06-04T06:56:44.953Z,20.55
2019-06-04T06:57:47.545Z,20.54
2019-06-04T06:58:49.743Z,20.55
2019-06-04T06:59:52.333Z,20.55
2019-06-04T07:00:54.536Z,20.55
2019-06-04T07:01:57.158Z,20.55
2019-06-04T07:02:59.354Z,20.54
2019-06-04T07:04:01.986Z,20.55
2019-06-04T07:05:04.202Z,20.55
2019-06-04T07:06:06.907Z,20.55
2019-06-04T07:07:12.865Z,20.56
2019-06-04T07:08:13.347Z,20.56
2019-06-04T07:09:15.570Z,20.57
2019-06-04T07:10:18.159Z,20.57
2019-06-04T07:11:20.374Z,20.57
2019-06-04T07:12:22.964Z,20.55
2019-06-04T07:13:25.161Z,20.57
2019-06-04T07:14:28.595Z,20.56
2019-06-04T07:15:32.323Z,20.56
2019-06-04T07:16:35.186Z,20.55
2019-06-04T07:17:37.560Z,20.56
2019-06-04T07:18:40.740Z,20.57
2019-06-04T07:19:43.166Z,20.55
2019-06-04T07:20:45.759Z,20.56
2019-06-04T07:21:47.972Z,20.59
2019-06-04T07:22:50.571Z,20.59
2019-06-04T07:23:52.777Z,20.59
2019-06-04T07:24:55.408Z,20.59
2019-06-04T07:25:57.606Z,20.58
2019-06-04T07:27:00.189Z,20.58
2019-06-04T07:28:02.392Z,20.59
2019-06-04T07:29:04.984Z,20.59
2019-06-04T07:30:07.214Z,20.59
2019-06-04T07:31:09.798Z,20.60
2019-06-04T07:32:12.030Z,20.60
2019-06-04T07:33:14.629Z,20.59
2019-06-04T07:34:16.851Z,20.61
2019-06-04T07:35:19.470Z,20.60
2019-06-04T07:36:25.763Z,20.59
2019-06-04T07:37:25.911Z,20.61
2019-06-04T07:38:28.106Z,20.60
2019-06-04T07:39:30.794Z,20.61
2019-06-04T07:40:33.137Z,20.60
2019-06-04T07:41:37.485Z,20.59
2019-06-04T07:42:39.590Z,20.60
2019-06-04T07:43:48.440Z,20.60
2019-06-04T07:44:46.080Z,20.59
2019-06-04T07:45:48.714Z,20.59
2019-06-04T07:46:50.928Z,20.59
2019-06-04T07:47:53.600Z,20.57
2019-06-04T07:48:55.813Z,20.58
2019-06-04T07:49:58.427Z,20.58
2019-06-04T07:51:00.658Z,20.58
2019-06-04T07:52:03.249Z,20.59
2019-06-04T07:53:05.456Z,20.59
2019-06-04T07:54:08.136Z,20.58
2019-06-04T07:55:10.399Z,20.57
2019-06-04T07:56:13.021Z,20.59
2019-06-04T07:57:15.212Z,20.58
2019-06-04T07:58:17.822Z,20.59
2019-06-04T07:59:19.989Z,20.59
2019-06-04T08:00:22.580Z,20.60
2019-06-04T08:01:24.808Z,20.59
2019-06-04T08:02:27.414Z,20.58
2019-06-04T08:03:29.652Z,20.58
2019-06-04T08:04:35.160Z,20.59
2019-06-04T08:05:36.435Z,20.60
2019-06-04T08:06:53.081Z,20.60
2019-06-04T08:07:42.956Z,20.61
2019-06-04T08:08:45.539Z,20.61
2019-06-04T08:09:47.745Z,20.62
2019-06-04T08:10:50.451Z,20.60
2019-06-04T08:11:52.837Z,20.61
2019-06-04T08:12:55.432Z,20.62
2019-06-04T08:13:57.702Z,20.61
2019-06-04T08:15:00.318Z,20.62
2019-06-04T08:16:02.604Z,20.62
2019-06-04T08:17:05.254Z,20.62
2019-06-04T08:18:07.466Z,20.62
2019-06-04T08:19:10.051Z,20.62
2019-06-04T08:20:12.246Z,20.61
2019-06-04T08:21:15.008Z,20.62
2019-06-04T08:22:17.252Z,20.60
2019-06-04T08:23:19.902Z,20.61
2019-06-04T08:24:22.117Z,20.61
2019-06-04T08:25:24.718Z,20.60
2019-06-04T08:26:26.910Z,20.61
2019-06-04T08:27:29.502Z,20.61
2019-06-04T08:28:31.713Z,20.63
2019-06-04T08:29:34.433Z,20.63
2019-06-04T08:30:38.308Z,20.62
2019-06-04T08:31:41.831Z,20.62
2019-06-04T08:32:45.981Z,20.62
2019-06-04T08:33:48.780Z,20.62
2019-06-04T08:34:51.001Z,20.62
2019-06-04T08:35:53.600Z,20.62
2019-06-04T08:37:07.653Z,20.61
2019-06-04T08:38:00.087Z,20.63
2019-06-04T08:39:02.306Z,20.64
2019-06-04T08:40:04.883Z,20.64
2019-06-04T08:41:07.097Z,20.64
2019-06-04T08:42:09.794Z,20.65
2019-06-04T08:43:12.054Z,20.66
2019-06-04T08:44:14.606Z,20.67
2019-06-04T08:45:17.212Z,20.67
2019-06-04T08:46:19.906Z,20.67
2019-06-04T08:47:22.112Z,20.68
2019-06-04T08:48:24.852Z,20.69
2019-06-04T08:49:27.039Z,20.69
2019-06-04T08:50:29.630Z,20.68
2019-06-04T08:51:31.863Z,20.67
2019-06-04T08:52:35.708Z,20.68
2019-06-04T08:53:38.183Z,20.67
2019-06-04T08:54:42.037Z,20.67
2019-06-04T08:55:46.334Z,20.67
2019-06-04T08:56:49.684Z,20.66
2019-06-04T08:57:52.194Z,20.65
2019-06-04T08:58:54.771Z,20.65
2019-06-04T08:59:57.017Z,20.65
2019-06-04T09:01:00.152Z,20.66
2019-06-04T09:02:02.659Z,20.66
2019-06-04T09:03:05.261Z,20.67
2019-06-04T09:04:07.473Z,20.67
2019-06-04T09:05:10.075Z,20.68
2019-06-04T09:06:12.270Z,20.68
2019-06-04T09:07:25.727Z,20.68
2019-06-04T09:08:18.739Z,20.69
2019-06-04T09:09:21.341Z,20.69
2019-06-04T09:10:23.558Z,20.70
2019-06-04T09:11:26.148Z,20.70
2019-06-04T09:12:28.368Z,20.71
2019-06-04T09:13:31.037Z,20.70
2019-06-04T09:14:33.247Z,20.69
2019-06-04T09:15:35.840Z,20.70
2019-06-04T09:16:38.098Z,20.69
2019-06-04T09:17:45.015Z,20.70
2019-06-04T09:18:44.650Z,20.70
2019-06-04T09:19:47.885Z,20.70
2019-06-04T09:20:50.948Z,20.70
2019-06-04T09:21:53.663Z,20.70
2019-06-04T09:22:55.887Z,20.70
2019-06-04T09:23:58.584Z,20.70
2019-06-04T09:25:00.763Z,20.70
2019-06-04T09:26:03.365Z,20.70
2019-06-04T09:27:08.259Z,20.70
2019-06-04T09:28:09.900Z,20.70
2019-06-04T09:29:12.223Z,20.70
2019-06-04T09:30:14.820Z,20.71
2019-06-04T09:31:25.895Z,20.72
2019-06-04T09:32:21.285Z,20.74
2019-06-04T09:33:23.504Z,20.74
2019-06-04T09:34:26.079Z,20.74
2019-06-04T09:35:28.293Z,20.75
2019-06-04T09:36:30.875Z,20.73
2019-06-04T09:37:46.690Z,20.74
2019-06-04T09:38:37.364Z,20.73
2019-06-04T09:39:39.907Z,20.74
2019-06-04T09:40:45.801Z,20.74
2019-06-04T09:41:48.023Z,20.74
2019-06-04T09:42:51.315Z,20.73
2019-06-04T09:43:53.718Z,20.69
2019-06-04T09:44:56.315Z,20.68
2019-06-04T09:45:58.520Z,20.69
2019-06-04T09:47:01.109Z,20.71
2019-06-04T09:48:03.345Z,20.72
2019-06-04T09:49:05.925Z,20.71
2019-06-04T09:50:08.143Z,20.72
2019-06-04T09:51:10.838Z,20.74
2019-06-04T09:52:13.047Z,20.73
2019-06-04T09:53:15.671Z,20.74
2019-06-04T09:54:17.905Z,20.74
2019-06-04T09:55:20.498Z,20.74
2019-06-04T09:56:22.720Z,20.74
2019-06-04T09:57:25.311Z,20.74
2019-06-04T09:58:30.320Z,20.74
2019-06-04T09:59:31.790Z,20.74
2019-06-04T10:00:34.000Z,20.74
2019-06-04T10:01:36.592Z,20.74
2019-06-04T10:02:38.913Z,20.73
2019-06-04T10:03:41.556Z,20.74
2019-06-04T10:04:44.244Z,20.73
2019-06-04T10:05:47.998Z,20.74
2019-06-04T10:06:50.213Z,20.74
2019-06-04T10:08:10.757Z,20.73
2019-06-04T10:08:56.702Z,20.75
2019-06-04T10:09:59.310Z,20.74
2019-06-04T10:11:01.505Z,20.73
2019-06-04T10:12:06.079Z,20.74
2019-06-04T10:13:08.074Z,20.73
2019-06-04T10:14:10.704Z,20.74
2019-06-04T10:15:12.930Z,20.73
2019-06-04T10:16:15.525Z,20.73
2019-06-04T10:17:17.720Z,20.74
2019-06-04T10:18:20.307Z,20.73
2019-06-04T10:19:22.548Z,20.74
2019-06-04T10:20:25.139Z,20.74
2019-06-04T10:21:27.362Z,20.74
2019-06-04T10:22:30.066Z,20.75
2019-06-04T10:23:32.273Z,20.73
2019-06-04T10:24:34.912Z,20.73
2019-06-04T10:25:37.127Z,20.73
2019-06-04T10:26:39.720Z,20.74
2019-06-04T10:27:41.917Z,20.73
2019-06-04T10:28:50.059Z,20.73
2019-06-04T10:29:48.384Z,20.73
2019-06-04T10:30:52.796Z,20.74
2019-06-04T10:31:55.227Z,20.74
2019-06-04T10:33:01.055Z,20.74
2019-06-04T10:34:01.869Z,20.74
2019-06-04T10:35:04.510Z,20.74
2019-06-04T10:36:06.740Z,20.76
2019-06-04T10:37:19.263Z,20.76
2019-06-04T10:38:27.013Z,20.75
2019-06-04T10:39:17.456Z,20.75
2019-06-04T10:40:19.658Z,20.76
2019-06-04T10:41:22.247Z,20.75
2019-06-04T10:42:24.459Z,20.77
2019-06-04T10:43:27.054Z,20.77
2019-06-04T10:44:29.276Z,20.78
2019-06-04T10:45:31.912Z,20.78
2019-06-04T10:46:34.137Z,20.78
2019-06-04T10:47:36.789Z,20.78
2019-06-04T10:48:38.984Z,20.79
2019-06-04T10:49:41.580Z,20.79
2019-06-04T10:50:43.814Z,20.78
2019-06-04T10:51:47.455Z,20.78
2019-06-04T10:52:51.123Z,20.78
2019-06-04T10:53:54.043Z,20.79
2019-06-04T10:54:56.255Z,20.79
2019-06-04T10:55:59.987Z,20.79
2019-06-04T10:57:02.388Z,20.78
2019-06-04T10:58:05.108Z,20.78
2019-06-04T10:59:07.325Z,20.79
2019-06-04T11:00:09.924Z,20.80
2019-06-04T11:01:12.162Z,20.81
2019-06-04T11:02:15.868Z,20.79
2019-06-04T11:03:18.085Z,20.80
2019-06-04T11:04:20.667Z,20.79
2019-06-04T11:05:22.867Z,20.81
2019-06-04T11:06:25.534Z,20.80
2019-06-04T11:07:27.762Z,20.79
2019-06-04T11:08:46.409Z,20.80
2019-06-04T11:09:34.205Z,20.79
2019-06-04T11:10:36.810Z,20.80
2019-06-04T11:11:41.147Z,20.79
2019-06-04T11:12:43.736Z,20.79
2019-06-04T11:13:45.943Z,20.78
2019-06-04T11:14:49.609Z,20.79
2019-06-04T11:15:53.566Z,20.79
2019-06-04T11:16:56.635Z,20.79
2019-06-04T11:17:59.859Z,20.79
2019-06-04T11:19:02.772Z,20.79
2019-06-04T11:20:04.987Z,20.80
2019-06-04T11:21:07.562Z,20.79
2019-06-04T11:22:09.785Z,20.80
2019-06-04T11:23:12.393Z,20.79
2019-06-04T11:24:14.587Z,20.80
2019-06-04T11:25:17.175Z,20.80
2019-06-04T11:26:19.393Z,20.81
2019-06-04T11:27:22.066Z,20.80
2019-06-04T11:28:24.280Z,20.82
2019-06-04T11:29:26.898Z,20.81
2019-06-04T11:30:29.117Z,20.81
2019-06-04T11:31:31.752Z,20.81
2019-06-04T11:32:33.988Z,20.81
2019-06-04T11:33:36.589Z,20.81
2019-06-04T11:34:38.797Z,20.81
2019-06-04T11:35:41.392Z,20.82
2019-06-04T11:36:43.615Z,20.82
2019-06-04T11:37:46.313Z,20.82
2019-06-04T11:39:07.798Z,20.82
2019-06-04T11:39:52.768Z,20.83
2019-06-04T11:40:57.571Z,20.83
2019-06-04T11:42:00.073Z,20.82
2019-06-04T11:43:10.818Z,20.81
2019-06-04T11:44:07.379Z,20.82
2019-06-04T11:45:23.559Z,20.83
2019-06-04T11:46:13.840Z,20.82
2019-06-04T11:47:16.063Z,20.82
2019-06-04T11:48:22.526Z,20.81
2019-06-04T11:49:22.678Z,20.82
2019-06-04T11:50:25.254Z,20.82
2019-06-04T11:51:27.455Z,20.83
2019-06-04T11:52:30.081Z,20.82
2019-06-04T11:53:34.378Z,20.84
2019-06-04T11:54:37.128Z,20.84
2019-06-04T11:55:39.985Z,20.82
2019-06-04T11:56:42.600Z,20.83
2019-06-04T11:57:44.787Z,20.83
2019-06-04T11:58:47.382Z,20.82
2019-06-04T11:59:49.602Z,20.82
2019-06-04T12:00:57.838Z,20.81
2019-06-04T12:01:58.095Z,20.81
2019-06-04T12:03:03.249Z,20.82
2019-06-04T12:04:04.629Z,20.82
2019-06-04T12:05:07.229Z,20.82
2019-06-04T12:06:09.443Z,20.83
2019-06-04T12:07:12.137Z,20.83
2019-06-04T12:08:14.355Z,20.83
2019-06-04T12:09:29.655Z,20.82
2019-06-04T12:10:20.840Z,20.83
2019-06-04T12:11:23.465Z,20.83
2019-06-04T12:12:43.351Z,20.84
2019-06-04T12:13:29.933Z,20.84
2019-06-04T12:14:32.140Z,20.83
2019-06-04T12:15:34.730Z,20.84
2019-06-04T12:16:36.949Z,20.83
2019-06-04T12:17:39.589Z,20.83
2019-06-04T12:18:41.782Z,20.82
2019-06-04T12:19:46.261Z,20.83
2019-06-04T12:20:48.385Z,20.84
2019-06-04T12:21:51.018Z,20.84
2019-06-04T12:23:26.883Z,20.84
2019-06-04T12:23:57.795Z,20.84
2019-06-04T12:25:03.794Z,20.84
2019-06-04T12:26:04.910Z,20.84
2019-06-04T12:27:07.229Z,20.84
2019-06-04T12:28:09.842Z,20.84
2019-06-04T12:29:12.040Z,20.84
2019-06-04T12:30:14.625Z,20.85
2019-06-04T12:31:16.831Z,20.86
2019-06-04T12:32:19.426Z,20.85
2019-06-04T12:33:21.647Z,20.84
2019-06-04T12:34:24.257Z,20.85
2019-06-04T12:35:26.466Z,20.85
2019-06-04T12:36:29.080Z,20.85
2019-06-04T12:37:31.297Z,20.86
2019-06-04T12:38:33.917Z,20.86
2019-06-04T12:39:50.140Z,20.87
2019-06-04T12:40:40.374Z,20.87
2019-06-04T12:41:42.585Z,20.87
2019-06-04T12:42:45.184Z,20.87
2019-06-04T12:43:47.442Z,20.87
2019-06-04T12:44:50.031Z,20.85
2019-06-04T12:45:52.334Z,20.86
2019-06-04T12:46:59.010Z,20.86
2019-06-04T12:47:59.483Z,20.86
2019-06-04T12:49:02.760Z,20.86
2019-06-04T12:50:07.135Z,20.87
2019-06-04T12:51:10.050Z,20.86
2019-06-04T12:52:12.263Z,20.88
2019-06-04T12:53:14.870Z,20.86
2019-06-04T12:54:18.784Z,20.88
2019-06-04T12:55:21.322Z,20.86
2019-06-04T12:56:23.508Z,20.87
2019-06-04T12:57:26.096Z,20.87
2019-06-04T12:58:28.301Z,20.88
2019-06-04T12:59:32.205Z,20.88
2019-06-04T13:00:34.669Z,20.88
2019-06-04T13:01:37.268Z,20.88
2019-06-04T13:02:39.511Z,20.89
2019-06-04T13:03:43.052Z,20.91
2019-06-04T13:04:45.305Z,20.91
2019-06-04T13:05:47.908Z,20.91
2019-06-04T13:06:50.211Z,20.90
2019-06-04T13:07:52.874Z,20.90
2019-06-04T13:08:55.217Z,20.93
2019-06-04T13:10:13.248Z,21.00
2019-06-04T13:11:02.971Z,21.06
2019-06-04T13:12:09.698Z,21.06
2019-06-04T13:13:09.483Z,21.06
2019-06-04T13:14:12.096Z,21.08
2019-06-04T13:15:14.351Z,21.06
2019-06-04T13:16:16.935Z,21.05
2019-06-04T13:17:19.149Z,21.06
2019-06-04T13:18:23.614Z,21.04
2019-06-04T13:19:25.626Z,21.03
2019-06-04T13:20:30.996Z,20.99
2019-06-04T13:21:32.390Z,20.97
2019-06-04T13:22:34.991Z,20.97
2019-06-04T13:23:37.211Z,20.97
2019-06-04T13:24:39.815Z,20.93
2019-06-04T13:25:42.100Z,20.93
2019-06-04T13:26:44.700Z,20.92